Time;durP1;ratioP1;P1;durP2;ratioP2;P2;SDS_P1;SDS_P2;PMS_P1;PMS_P2;Temp;Humidity;BMP_temperature;BMP_pressure;BME280_temperature;BME280_humidity;BME280_pressure;Samples;Min_cycle;Max_cycle;Signal;HPM_P1;HPM_P2
2021/08/06 00:00:13;;;;;;;0.90;0.60;;;17.20;99.90;;;;;;4997784;28;20030;-78
2021/08/06 00:02:41;;;;;;;0.90;0.40;;;17.20;99.90;;;;;;4998631;28;20457;-78
2021/08/06 00:05:08;;;;;;;4.13;0.40;;;17.10;99.90;;;;;;4997726;28;20034;-77
2021/08/06 00:07:34;;;;;;;2.88;0.40;;;17.20;99.90;;;;;;4996263;28;20102;-78
2021/08/06 00:10:00;;;;;;;0.90;0.30;;;17.20;99.90;;;;;;5013157;28;20010;-77
2021/08/06 00:12:25;;;;;;;0.57;0.38;;;17.20;99.90;;;;;;5013278;28;20034;-77
2021/08/06 00:14:51;;;;;;;4.03;0.47;;;17.20;99.90;;;;;;5012750;28;20013;-78
2021/08/06 00:17:17;;;;;;;1.50;0.70;;;17.20;99.90;;;;;;4995984;28;20042;-80
2021/08/06 00:19:43;;;;;;;0.75;0.40;;;17.20;99.90;;;;;;4996209;28;20042;-77
2021/08/06 00:22:09;;;;;;;2.20;0.50;;;17.20;99.90;;;;;;4995888;28;20014;-78
2021/08/06 00:24:35;;;;;;;2.20;0.60;;;17.10;99.90;;;;;;4995089;28;20050;-77
2021/08/06 00:27:01;;;;;;;1.25;0.50;;;17.10;99.90;;;;;;5012818;28;20030;-78
2021/08/06 00:29:27;;;;;;;2.08;0.45;;;17.10;99.90;;;;;;4994018;28;20023;-78
2021/08/06 00:31:52;;;;;;;0.90;0.50;;;17.10;99.90;;;;;;4994921;28;20022;-79
2021/08/06 00:34:18;;;;;;;3.47;0.60;;;17.20;99.90;;;;;;5011227;28;20015;-77
2021/08/06 00:36:44;;;;;;;0.68;0.50;;;17.10;99.90;;;;;;5012541;28;20045;-78
2021/08/06 00:39:09;;;;;;;0.88;0.45;;;17.10;99.90;;;;;;4995400;28;20026;-78
2021/08/06 00:41:36;;;;;;;3.25;0.80;;;17.10;99.90;;;;;;4996076;28;20025;-78
2021/08/06 00:44:01;;;;;;;1.10;0.50;;;17.10;99.90;;;;;;4995493;28;20407;-77
2021/08/06 00:46:27;;;;;;;2.00;0.70;;;17.10;99.90;;;;;;4996278;28;20031;-78
2021/08/06 00:48:53;;;;;;;3.40;1.60;;;17.20;99.90;;;;;;4996121;28;20010;-78
2021/08/06 00:51:20;;;;;;;2.40;0.98;;;17.10;99.90;;;;;;5013299;28;20166;-77
2021/08/06 00:53:46;;;;;;;2.88;0.70;;;17.10;99.90;;;;;;4994499;28;20499;-78
2021/08/06 00:56:12;;;;;;;1.55;1.10;;;17.10;99.90;;;;;;5012746;28;20046;-78
2021/08/06 00:58:38;;;;;;;1.15;0.75;;;17.10;99.90;;;;;;4995632;28;20037;-78
2021/08/06 01:01:04;;;;;;;6.05;1.02;;;17.10;99.90;;;;;;5012303;28;20022;-77
2021/08/06 01:03:56;;;;;;;2.00;0.60;;;17.10;99.90;;;;;;5011529;28;20030;-78
2021/08/06 01:06:28;;;;;;;11.75;1.13;;;17.10;99.90;;;;;;5010337;28;20031;-78
2021/08/06 01:08:53;;;;;;;2.63;0.90;;;17.10;99.90;;;;;;4994990;28;20050;-78
2021/08/06 01:11:23;;;;;;;2.55;1.13;;;17.10;99.90;;;;;;5013171;28;20037;-77
2021/08/06 01:13:54;;;;;;;3.45;1.10;;;17.00;99.90;;;;;;5013133;28;20045;-77
2021/08/06 01:16:30;;;;;;;6.32;1.10;;;17.00;99.90;;;;;;5011495;28;20029;-78
2021/08/06 01:19:14;;;;;;;1.60;1.02;;;17.00;99.90;;;;;;5013303;28;20078;-79
2021/08/06 01:21:45;;;;;;;2.50;1.33;;;17.10;99.90;;;;;;4996628;28;20041;-78
2021/08/06 01:24:17;;;;;;;2.65;1.30;;;17.00;99.90;;;;;;4993729;28;20030;-77
2021/08/06 01:26:45;;;;;;;3.75;1.17;;;17.10;99.90;;;;;;4995747;28;20030;-77
2021/08/06 01:29:12;;;;;;;2.72;1.05;;;17.00;99.90;;;;;;4994669;28;20022;-77
2021/08/06 01:31:38;;;;;;;1.08;0.80;;;17.10;99.90;;;;;;4995634;28;20030;-78
2021/08/06 01:34:04;;;;;;;2.45;1.08;;;17.00;99.90;;;;;;4992800;28;20088;-78
2021/08/06 01:36:29;;;;;;;1.60;1.10;;;17.00;99.90;;;;;;4995040;28;20031;-80
2021/08/06 01:38:56;;;;;;;2.08;1.30;;;17.00;99.90;;;;;;4994074;28;20026;-78
2021/08/06 01:41:32;;;;;;;2.47;1.17;;;17.00;99.90;;;;;;4994695;28;20195;-78
2021/08/06 01:44:07;;;;;;;2.92;0.90;;;17.00;99.90;;;;;;4995187;28;20026;-78
2021/08/06 01:46:43;;;;;;;2.67;1.00;;;17.00;99.90;;;;;;5011799;28;20037;-78
2021/08/06 01:49:13;;;;;;;2.40;1.20;;;17.00;99.90;;;;;;5009344;28;20033;-78
2021/08/06 01:51:41;;;;;;;2.28;1.27;;;17.00;99.90;;;;;;4995285;28;20050;-78
2021/08/06 01:54:11;;;;;;;10.63;1.40;;;16.90;99.90;;;;;;4995081;28;20027;-78
2021/08/06 01:56:39;;;;;;;5.15;1.67;;;16.80;99.90;;;;;;4993904;28;20129;-77
2021/08/06 01:59:06;;;;;;;2.38;1.85;;;16.80;99.90;;;;;;5012252;28;20022;-79
2021/08/06 02:01:32;;;;;;;3.00;1.85;;;16.80;99.90;;;;;;4996045;28;20030;-79
2021/08/06 02:03:57;;;;;;;2.10;1.33;;;16.70;99.90;;;;;;4994162;28;20049;-78
2021/08/06 02:06:24;;;;;;;2.35;1.48;;;16.70;99.90;;;;;;4993624;28;20062;-79
2021/08/06 02:08:50;;;;;;;3.67;1.67;;;16.70;99.90;;;;;;4998256;28;20033;-77
2021/08/06 02:11:20;;;;;;;4.82;2.00;;;16.60;99.90;;;;;;5000205;28;20057;-78
2021/08/06 02:13:48;;;;;;;1.73;1.45;;;16.60;99.90;;;;;;5014705;28;20030;-78
2021/08/06 02:16:15;;;;;;;3.85;1.73;;;16.60;99.90;;;;;;4999191;28;20045;-78
2021/08/06 02:18:42;;;;;;;2.35;1.85;;;16.60;99.90;;;;;;4996865;28;20659;-78
2021/08/06 02:21:12;;;;;;;2.30;1.73;;;16.60;99.90;;;;;;5014112;28;20037;-77
2021/08/06 02:23:43;;;;;;;2.97;1.90;;;16.60;99.90;;;;;;5016282;28;20034;-78
2021/08/06 02:26:11;;;;;;;2.75;2.17;;;16.60;99.90;;;;;;5015304;28;20030;-79
2021/08/06 02:28:36;;;;;;;2.60;1.98;;;16.50;99.90;;;;;;4998987;28;20118;-77
2021/08/06 02:31:02;;;;;;;2.80;1.88;;;16.60;99.90;;;;;;5017047;28;20014;-77
2021/08/06 02:33:29;;;;;;;4.43;1.90;;;16.60;99.90;;;;;;4997582;28;20041;-78
2021/08/06 02:35:54;;;;;;;4.88;2.00;;;16.50;99.90;;;;;;5015235;28;20030;-77
2021/08/06 02:38:22;;;;;;;2.45;2.10;;;16.50;99.90;;;;;;4995785;28;20058;-78
2021/08/06 02:40:48;;;;;;;4.10;1.65;;;16.50;99.90;;;;;;5015622;28;20022;-79
2021/08/06 02:43:16;;;;;;;3.17;1.92;;;16.40;99.90;;;;;;4997227;28;20010;-79
2021/08/06 02:45:42;;;;;;;1.92;1.73;;;16.40;99.90;;;;;;5013341;28;20034;-78
2021/08/06 02:48:08;;;;;;;1.65;1.40;;;16.40;99.90;;;;;;4997356;28;20475;-79
2021/08/06 02:50:33;;;;;;;3.72;1.40;;;16.40;99.90;;;;;;4993969;28;20019;-78
2021/08/06 02:52:59;;;;;;;2.47;1.45;;;16.40;99.90;;;;;;5013469;28;20034;-77
2021/08/06 02:55:24;;;;;;;2.00;1.58;;;16.40;99.90;;;;;;5016362;28;20346;-78
2021/08/06 02:57:50;;;;;;;3.40;1.45;;;16.40;99.90;;;;;;4998867;28;20031;-80
2021/08/06 03:00:16;;;;;;;3.08;1.25;;;16.40;99.90;;;;;;4997826;28;20071;-78
2021/08/06 03:02:41;;;;;;;3.55;1.55;;;16.40;99.90;;;;;;5016011;28;20026;-79
2021/08/06 03:05:07;;;;;;;1.50;1.10;;;16.40;99.90;;;;;;4998005;28;20018;-78
2021/08/06 03:07:33;;;;;;;3.28;1.38;;;16.40;99.90;;;;;;4997457;28;20010;-78
2021/08/06 03:09:58;;;;;;;1.73;1.33;;;16.40;99.90;;;;;;4996425;28;20045;-78
2021/08/06 03:12:24;;;;;;;3.08;1.50;;;16.30;99.90;;;;;;4998530;28;20369;-78
2021/08/06 03:14:50;;;;;;;2.22;1.90;;;16.30;99.90;;;;;;5014694;28;20031;-78
2021/08/06 03:17:16;;;;;;;2.00;1.33;;;16.30;99.90;;;;;;4995369;28;20046;-78
2021/08/06 03:19:41;;;;;;;2.40;1.60;;;16.20;99.90;;;;;;4995296;28;20033;-79
2021/08/06 03:22:07;;;;;;;2.53;1.33;;;16.20;99.90;;;;;;4996476;28;20026;-78
2021/08/06 03:24:32;;;;;;;3.30;1.15;;;16.20;99.90;;;;;;4996327;28;20031;-79
2021/08/06 03:26:58;;;;;;;3.65;2.17;;;16.20;99.90;;;;;;5011752;28;20022;-78
2021/08/06 03:29:24;;;;;;;2.13;1.63;;;16.10;99.90;;;;;;5010622;28;20037;-76
2021/08/06 03:31:49;;;;;;;2.13;1.30;;;16.10;99.90;;;;;;4995993;28;20022;-78
2021/08/06 03:34:15;;;;;;;2.10;1.40;;;16.00;99.90;;;;;;4993833;28;20109;-78
2021/08/06 03:36:40;;;;;;;1.80;1.25;;;16.00;99.90;;;;;;5010978;28;20042;-78
2021/08/06 03:39:06;;;;;;;2.65;1.02;;;16.00;99.90;;;;;;4992946;28;20025;-78
2021/08/06 03:41:32;;;;;;;;;;;16.00;99.90;;;;;;5010926;28;20030;-78
2021/08/06 03:43:57;;;;;;;1.70;1.40;;;15.90;99.90;;;;;;4993705;28;19913;-79
2021/08/06 03:46:23;;;;;;;;;;;15.90;99.90;;;;;;4994039;28;20033;-78
2021/08/06 03:48:49;;;;;;;4.72;1.48;;;16.00;99.90;;;;;;4994050;28;19906;-79
2021/08/06 03:51:14;;;;;;;4.43;1.45;;;15.90;99.90;;;;;;5010559;28;20033;-78
2021/08/06 03:53:40;;;;;;;3.42;1.52;;;15.90;99.90;;;;;;4995969;28;20022;-79
2021/08/06 03:56:06;;;;;;;1.92;1.42;;;15.90;99.90;;;;;;4995429;28;20023;-78
2021/08/06 03:58:32;;;;;;;2.88;1.15;;;15.90;99.90;;;;;;5011529;28;20030;-79
2021/08/06 04:00:57;;;;;;;2.15;1.48;;;15.90;99.90;;;;;;4995820;28;20094;-78
2021/08/06 04:03:23;;;;;;;9.50;1.40;;;16.00;99.90;;;;;;4994355;28;20060;-78
2021/08/06 04:05:48;;;;;;;2.40;1.35;;;16.00;99.90;;;;;;5013882;28;20052;-78
2021/08/06 04:08:14;;;;;;;2.47;1.20;;;16.00;99.90;;;;;;5014839;28;20010;-77
2021/08/06 04:10:40;;;;;;;2.60;1.40;;;16.00;99.90;;;;;;5014266;28;20026;-77
2021/08/06 04:13:06;;;;;;;4.18;1.17;;;16.10;99.90;;;;;;4995794;28;20035;-77
2021/08/06 04:15:32;;;;;;;3.28;1.23;;;16.10;99.90;;;;;;4995705;28;20026;-77
2021/08/06 04:17:57;;;;;;;8.10;1.33;;;16.20;99.90;;;;;;4996364;28;20017;-78
2021/08/06 04:20:23;;;;;;;1.70;0.73;;;16.30;99.90;;;;;;5014928;28;20021;-77
2021/08/06 04:22:49;;;;;;;3.88;0.75;;;16.40;99.90;;;;;;4996533;28;20042;-78
2021/08/06 04:25:15;;;;;;;1.20;0.80;;;16.40;99.90;;;;;;5012434;28;20023;-77
2021/08/06 04:27:41;;;;;;;1.38;0.70;;;16.50;99.90;;;;;;5012986;28;20050;-78
2021/08/06 04:30:08;;;;;;;0.98;0.60;;;16.60;99.50;;;;;;4992524;28;20036;-78
2021/08/06 04:32:34;;;;;;;4.63;0.55;;;16.80;98.70;;;;;;5013629;28;20053;-78
2021/08/06 04:35:01;;;;;;;2.25;0.52;;;16.70;99.10;;;;;;4996882;28;20006;-78
2021/08/06 04:37:27;;;;;;;1.17;0.63;;;16.80;98.70;;;;;;5029425;28;20058;-78
2021/08/06 04:39:52;;;;;;;3.42;0.77;;;16.90;98.70;;;;;;5027348;28;20110;-78
2021/08/06 04:42:18;;;;;;;2.75;0.60;;;16.90;98.70;;;;;;5013342;28;20026;-78
2021/08/06 04:44:44;;;;;;;1.50;1.00;;;16.90;98.40;;;;;;5019101;28;20109;-77
2021/08/06 04:47:10;;;;;;;5.85;0.70;;;17.00;98.70;;;;;;5002530;28;20050;-78
2021/08/06 04:49:36;;;;;;;2.50;0.77;;;17.10;98.40;;;;;;4996783;28;20030;-78
2021/08/06 04:52:02;;;;;;;3.90;0.70;;;17.20;98.20;;;;;;4992047;28;20026;-80
2021/08/06 04:54:28;;;;;;;1.33;0.60;;;17.30;97.90;;;;;;5008639;28;20168;-78
2021/08/06 04:56:54;;;;;;;1.67;0.63;;;17.30;97.70;;;;;;5019206;28;20057;-79
2021/08/06 04:59:22;;;;;;;1.30;0.65;;;17.30;97.60;;;;;;4997427;28;20447;-77
2021/08/06 05:01:48;;;;;;;3.92;0.60;;;17.30;97.60;;;;;;5023833;28;20041;-78
2021/08/06 05:04:14;;;;;;;1.15;0.60;;;17.30;97.50;;;;;;5031676;28;20014;-78
2021/08/06 05:06:39;;;;;;;2.88;0.68;;;17.40;97.70;;;;;;4977644;28;20034;-78
2021/08/06 05:09:05;;;;;;;3.70;0.63;;;17.40;97.50;;;;;;4996280;28;20034;-78
2021/08/06 05:11:31;;;;;;;2.95;0.80;;;17.30;97.30;;;;;;5011167;28;20018;-78
2021/08/06 05:13:57;;;;;;;5.95;0.80;;;17.40;97.50;;;;;;5013863;28;20122;-77
2021/08/06 05:16:23;;;;;;;3.83;0.93;;;17.40;97.70;;;;;;5020805;28;20022;-76
2021/08/06 05:18:48;;;;;;;2.22;0.85;;;17.40;97.80;;;;;;5031736;28;20037;-78
2021/08/06 05:21:15;;;;;;;2.72;0.68;;;17.40;97.60;;;;;;5032751;28;20030;-77
2021/08/06 05:23:40;;;;;;;2.10;0.90;;;17.50;97.50;;;;;;5032193;28;20517;-78
2021/08/06 05:26:06;;;;;;;2.67;1.00;;;17.70;97.30;;;;;;5014707;28;20033;-78
2021/08/06 05:28:32;;;;;;;2.55;1.30;;;17.70;97.40;;;;;;5013028;28;20030;-79
2021/08/06 05:30:57;;;;;;;1.95;1.20;;;17.70;97.20;;;;;;5028800;28;20022;-80
2021/08/06 05:33:23;;;;;;;5.25;1.20;;;17.70;97.30;;;;;;5003904;28;20026;-81
2021/08/06 05:35:49;;;;;;;4.25;1.00;;;17.70;97.40;;;;;;5014501;28;20029;-81
2021/08/06 05:38:14;;;;;;;5.20;1.10;;;17.70;97.40;;;;;;4993161;28;20062;-80
2021/08/06 05:40:43;;;;;;;3.65;1.25;;;17.80;97.10;;;;;;5009462;28;20041;-81
2021/08/06 05:43:09;;;;;;;4.13;1.05;;;17.80;96.70;;;;;;4994388;28;20088;-80
2021/08/06 05:45:35;;;;;;;7.22;1.02;;;17.80;96.50;;;;;;5025868;28;20030;-77
2021/08/06 05:48:01;;;;;;;2.95;1.20;;;17.70;96.60;;;;;;5019353;28;20045;-81
2021/08/06 05:50:29;;;;;;;5.38;1.30;;;17.60;96.70;;;;;;4992802;28;20776;-81
2021/08/06 05:52:55;;;;;;;3.95;0.77;;;17.60;96.90;;;;;;4991738;28;20034;-84
2021/08/06 05:55:21;;;;;;;1.92;1.05;;;17.70;97.00;;;;;;4989056;28;20475;-85
2021/08/06 05:57:47;;;;;;;3.95;1.20;;;17.90;96.40;;;;;;5006744;28;20042;-83
2021/08/06 06:00:15;;;;;;;9.05;0.90;;;18.20;95.90;;;;;;4984252;28;20033;-87
2021/08/06 06:02:41;;;;;;;3.80;0.80;;;18.70;95.30;;;;;;4977585;28;20034;-85
2021/08/06 06:05:07;;;;;;;1.17;0.60;;;19.40;93.50;;;;;;4969553;28;20023;-85
2021/08/06 06:07:45;;;;;;;1.50;0.68;;;20.10;91.60;;;;;;4968754;28;20030;-83
2021/08/06 06:10:11;;;;;;;3.42;0.70;;;20.90;88.20;;;;;;4986640;28;20481;-82
2021/08/06 06:12:38;;;;;;;1.17;0.60;;;21.60;84.30;;;;;;4969373;28;20053;-83
2021/08/06 06:15:04;;;;;;;1.67;0.70;;;22.00;82.30;;;;;;4969397;28;20029;-81
2021/08/06 06:17:30;;;;;;;2.63;0.60;;;22.90;77.90;;;;;;4986933;28;20034;-79
2021/08/06 06:19:55;;;;;;;1.10;0.52;;;23.70;73.30;;;;;;4986753;28;20041;-79
2021/08/06 06:22:21;;;;;;;2.95;0.65;;;24.80;67.90;;;;;;4986242;28;20022;-78
2021/08/06 06:24:46;;;;;;;1.67;0.55;;;25.90;62.80;;;;;;4968958;28;20389;-80
2021/08/06 06:27:12;;;;;;;1.30;0.50;;;26.60;59.40;;;;;;4969041;28;20121;-80
2021/08/06 06:29:38;;;;;;;3.08;0.60;;;27.50;55.80;;;;;;4986319;28;20035;-79
2021/08/06 06:32:04;;;;;;;2.42;0.60;;;28.10;53.10;;;;;;4969238;28;20038;-80
2021/08/06 06:34:30;;;;;;;2.65;0.40;;;28.50;52.50;;;;;;4986316;28;20027;-80
2021/08/06 06:36:55;;;;;;;0.50;0.50;;;28.60;51.00;;;;;;4986010;28;20585;-79
2021/08/06 06:39:21;;;;;;;1.05;0.50;;;28.40;50.90;;;;;;4986622;28;20029;-77
2021/08/06 06:41:47;;;;;;;1.60;0.60;;;28.10;50.80;;;;;;4986639;28;20030;-79
2021/08/06 06:44:12;;;;;;;0.93;0.50;;;28.10;51.30;;;;;;4986662;28;20105;-79
2021/08/06 06:46:38;;;;;;;6.80;0.52;;;28.10;50.60;;;;;;4968690;28;20061;-79
2021/08/06 06:49:03;;;;;;;3.70;0.65;;;27.90;51.00;;;;;;4986143;28;20022;-78
2021/08/06 06:51:29;;;;;;;3.22;0.40;;;27.60;51.00;;;;;;4986364;28;20034;-80
2021/08/06 06:53:55;;;;;;;3.05;0.35;;;27.10;53.00;;;;;;4971291;28;20037;-82
2021/08/06 06:56:20;;;;;;;0.52;0.30;;;26.50;54.30;;;;;;4978515;28;20031;-80
2021/08/06 06:58:46;;;;;;;3.55;0.55;;;25.80;55.40;;;;;;4996687;28;20059;-79
2021/08/06 07:01:12;;;;;;;0.50;0.40;;;25.30;57.10;;;;;;4996585;28;20026;-78
2021/08/06 07:03:37;;;;;;;2.33;0.50;;;25.30;57.70;;;;;;5007578;28;20030;-79
2021/08/06 07:06:03;;;;;;;1.95;0.30;;;26.00;56.20;;;;;;4991823;28;20049;-78
2021/08/06 07:08:29;;;;;;;2.58;0.73;;;26.30;55.20;;;;;;5009063;28;20066;-78
2021/08/06 07:10:54;;;;;;;3.63;0.50;;;26.20;54.80;;;;;;5002854;28;20634;-78
2021/08/06 07:13:20;;;;;;;2.97;0.70;;;25.80;55.80;;;;;;4999126;28;20036;-78
2021/08/06 07:15:46;;;;;;;1.48;0.50;;;25.40;56.70;;;;;;4990559;28;20034;-79
2021/08/06 07:18:13;;;;;;;4.97;0.40;;;25.30;57.50;;;;;;4991888;28;20030;-80
2021/08/06 07:20:39;;;;;;;0.98;0.40;;;25.30;58.60;;;;;;5008650;28;20026;-80
2021/08/06 07:23:05;;;;;;;2.80;0.40;;;25.50;58.20;;;;;;4991330;28;20046;-79
2021/08/06 07:25:31;;;;;;;1.15;0.38;;;25.90;56.90;;;;;;4991565;28;20038;-78
2021/08/06 07:27:57;;;;;;;1.95;0.40;;;25.90;55.90;;;;;;4991193;28;20030;-80
2021/08/06 07:30:23;;;;;;;8.95;0.50;;;25.80;55.80;;;;;;4991283;28;20033;-79
2021/08/06 07:32:49;;;;;;;1.77;0.50;;;25.20;57.30;;;;;;4991408;28;20026;-79
2021/08/06 07:35:16;;;;;;;5.13;0.73;;;24.60;59.20;;;;;;4990906;28;20033;-80
2021/08/06 07:37:42;;;;;;;1.33;0.43;;;24.20;61.00;;;;;;5008267;28;20120;-80
2021/08/06 07:40:10;;;;;;;0.95;0.30;;;24.00;60.70;;;;;;5008403;28;20033;-81
2021/08/06 07:42:35;;;;;;;0.68;0.40;;;23.90;61.80;;;;;;5008891;28;20113;-80
2021/08/06 07:45:02;;;;;;;1.92;0.60;;;23.80;62.50;;;;;;5008744;28;20152;-79
2021/08/06 07:47:28;;;;;;;2.47;0.57;;;24.10;63.10;;;;;;4990809;28;20025;-79
2021/08/06 07:49:53;;;;;;;1.38;0.57;;;24.90;60.80;;;;;;5008217;28;20040;-81
2021/08/06 07:52:19;;;;;;;1.42;0.40;;;25.60;59.10;;;;;;5007707;28;20055;-80
2021/08/06 07:54:45;;;;;;;1.58;0.50;;;26.10;58.00;;;;;;4991051;28;20032;-80
2021/08/06 07:57:11;;;;;;;0.52;0.50;;;26.70;56.40;;;;;;4990277;28;20029;-79
2021/08/06 07:59:38;;;;;;;0.70;0.40;;;27.00;54.40;;;;;;4990748;28;20251;-80
2021/08/06 08:02:05;;;;;;;3.20;0.60;;;27.60;53.50;;;;;;5008253;28;20456;-80
2021/08/06 08:04:30;;;;;;;2.85;0.60;;;27.80;53.50;;;;;;4989467;28;20060;-80
2021/08/06 08:06:56;;;;;;;2.45;0.50;;;28.40;52.10;;;;;;4990090;28;20030;-80
2021/08/06 08:09:21;;;;;;;1.48;0.60;;;28.80;50.50;;;;;;4990309;28;20483;-80
2021/08/06 08:11:47;;;;;;;0.50;0.50;;;29.00;49.30;;;;;;5007762;28;20025;-80
2021/08/06 08:14:13;;;;;;;1.60;0.60;;;29.20;49.30;;;;;;4990391;28;20121;-78
2021/08/06 08:16:39;;;;;;;3.80;0.45;;;29.40;48.30;;;;;;4990453;28;20037;-78
2021/08/06 08:19:04;;;;;;;1.08;0.40;;;29.50;48.20;;;;;;5007544;28;20498;-81
2021/08/06 08:21:30;;;;;;;2.13;0.60;;;29.60;48.10;;;;;;4990573;28;20029;-81
2021/08/06 08:23:56;;;;;;;5.20;0.40;;;29.60;48.10;;;;;;4990229;28;20513;-80
2021/08/06 08:26:22;;;;;;;1.33;0.35;;;29.60;48.60;;;;;;5007949;28;20512;-80
2021/08/06 08:28:48;;;;;;;0.95;0.50;;;29.90;48.10;;;;;;4990119;28;20447;-80
2021/08/06 08:31:13;;;;;;;1.33;0.43;;;29.90;47.10;;;;;;5007678;28;20037;-79
2021/08/06 08:33:39;;;;;;;1.33;0.30;;;30.00;46.50;;;;;;4989787;28;20025;-80
2021/08/06 08:36:05;;;;;;;1.42;0.40;;;30.10;45.70;;;;;;5007176;28;20022;-80
2021/08/06 08:38:32;;;;;;;1.48;0.50;;;30.20;45.30;;;;;;4990186;28;20070;-79
2021/08/06 08:40:59;;;;;;;3.13;0.60;;;30.30;46.90;;;;;;4989802;28;20034;-81
2021/08/06 08:43:25;;;;;;;3.88;0.55;;;30.70;46.20;;;;;;5007430;28;20026;-80
2021/08/06 08:45:55;;;;;;;4.28;0.60;;;30.80;46.90;;;;;;5007476;28;20037;-81
2021/08/06 08:48:21;;;;;;;2.05;0.50;;;30.80;45.60;;;;;;4989766;28;20030;-80
2021/08/06 08:50:47;;;;;;;1.48;0.70;;;30.60;46.10;;;;;;4989666;28;20101;-80
2021/08/06 08:53:12;;;;;;;3.88;0.60;;;30.60;45.60;;;;;;4989476;28;20034;-79
2021/08/06 08:55:38;;;;;;;2.22;0.70;;;30.20;46.40;;;;;;5007153;28;20022;-80
2021/08/06 08:58:06;;;;;;;2.00;0.52;;;30.30;46.60;;;;;;5007200;28;20383;-79
2021/08/06 09:00:32;;;;;;;3.10;0.50;;;30.50;46.20;;;;;;4989953;28;20041;-79
2021/08/06 09:02:58;;;;;;;1.20;0.50;;;30.70;46.70;;;;;;5007142;28;20033;-80
2021/08/06 09:05:25;;;;;;;1.15;0.40;;;30.80;46.00;;;;;;4989188;28;20423;-80
2021/08/06 09:07:51;;;;;;;0.70;0.45;;;31.00;46.20;;;;;;4988956;28;20248;-79
2021/08/06 09:10:27;;;;;;;3.53;0.40;;;31.00;45.70;;;;;;4989169;28;20034;-80
2021/08/06 09:12:59;;;;;;;1.67;0.43;;;31.10;45.40;;;;;;5001628;28;20554;-80
2021/08/06 09:15:50;;;;;;;1.75;0.40;;;31.20;45.00;;;;;;5008345;28;20015;-81
2021/08/06 09:18:27;;;;;;;0.40;0.40;;;31.60;44.90;;;;;;4989856;28;20554;-80
2021/08/06 09:21:16;;;;;;;1.48;0.50;;;31.50;44.00;;;;;;5003459;28;20022;-78
2021/08/06 09:23:57;;;;;;;2.95;0.70;;;31.30;44.10;;;;;;4981129;28;20038;-81
2021/08/06 09:26:26;;;;;;;1.30;0.50;;;30.80;45.30;;;;;;4988946;28;20037;-80
2021/08/06 09:29:08;;;;;;;3.60;0.50;;;31.20;44.40;;;;;;5006701;28;20482;-80
2021/08/06 09:31:40;;;;;;;5.55;0.47;;;31.40;43.20;;;;;;5006817;28;20026;-79
2021/08/06 09:34:08;;;;;;;4.30;0.50;;;31.40;43.90;;;;;;4989248;28;20492;-81
2021/08/06 09:36:35;;;;;;;0.93;0.60;;;31.40;44.30;;;;;;5006050;28;20392;-81
2021/08/06 09:39:17;;;;;;;2.35;0.70;;;31.60;44.50;;;;;;4989175;28;20036;-80
2021/08/06 09:41:45;;;;;;;2.03;0.50;;;31.50;43.90;;;;;;4989180;28;20030;-80
2021/08/06 09:44:15;;;;;;;2.25;0.40;;;31.40;44.80;;;;;;4989293;28;20060;-80
2021/08/06 09:46:41;;;;;;;0.95;0.40;;;31.50;44.20;;;;;;5006267;28;20030;-80
2021/08/06 09:49:07;;;;;;;2.65;0.40;;;31.50;43.80;;;;;;5006364;28;20029;-80
2021/08/06 09:51:37;;;;;;;3.70;0.63;;;31.40;43.30;;;;;;4983805;28;20117;-80
2021/08/06 09:54:20;;;;;;;1.33;0.40;;;31.50;44.00;;;;;;4989087;28;20564;-79
2021/08/06 09:56:47;;;;;;;1.23;0.40;;;31.60;42.90;;;;;;5006445;28;20026;-80
2021/08/06 09:59:24;;;;;;;0.93;0.32;;;31.30;44.00;;;;;;4988728;28;20046;-80
2021/08/06 10:02:14;;;;;;;3.53;0.60;;;31.50;43.60;;;;;;5006330;28;20473;-80
2021/08/06 10:04:42;;;;;;;1.35;0.40;;;31.20;43.60;;;;;;4988836;28;20469;-79
2021/08/06 10:07:08;;;;;;;1.38;0.52;;;30.60;44.60;;;;;;4988092;28;20621;-79
2021/08/06 10:09:34;;;;;;;0.88;0.80;;;30.10;45.40;;;;;;5006518;28;20030;-80
2021/08/06 10:12:00;;;;;;;2.72;0.50;;;30.00;46.20;;;;;;4988738;28;20034;-79
2021/08/06 10:14:26;;;;;;;7.72;0.60;;;29.80;46.00;;;;;;4988470;28;20517;-79
2021/08/06 10:16:54;;;;;;;4.20;0.40;;;29.30;46.80;;;;;;4988579;28;20398;-80
2021/08/06 10:19:20;;;;;;;1.48;0.40;;;29.10;47.50;;;;;;5005564;28;20540;-79
2021/08/06 10:21:46;;;;;;;1.55;0.50;;;28.50;48.70;;;;;;4988479;28;20033;-80
2021/08/06 10:24:16;;;;;;;3.22;0.38;;;28.10;49.10;;;;;;4988398;28;20491;-79
2021/08/06 10:26:44;;;;;;;1.83;0.55;;;27.70;49.10;;;;;;4988754;28;20053;-80
2021/08/06 10:29:10;;;;;;;5.28;0.40;;;27.20;49.90;;;;;;4992098;28;20033;-77
2021/08/06 10:31:36;;;;;;;0.95;0.40;;;27.00;52.10;;;;;;4992437;28;20317;-80
2021/08/06 10:34:10;;;;;;;1.67;0.40;;;26.70;51.20;;;;;;5009716;28;20033;-79
2021/08/06 10:36:48;;;;;;;1.15;0.40;;;26.60;53.10;;;;;;5009833;28;20049;-81
2021/08/06 10:39:37;;;;;;;1.23;0.40;;;26.50;53.90;;;;;;4992164;28;20049;-81
2021/08/06 10:42:03;;;;;;;1.25;0.35;;;26.50;54.20;;;;;;4991917;28;20033;-82
2021/08/06 10:44:52;;;;;;;0.30;0.30;;;26.50;53.60;;;;;;5009475;28;20026;-81
2021/08/06 10:47:18;;;;;;;1.75;0.40;;;26.30;53.30;;;;;;5009901;28;20049;-81
2021/08/06 10:50:13;;;;;;;1.40;0.30;;;26.00;52.70;;;;;;5009178;28;20451;-80
2021/08/06 10:52:39;;;;;;;2.00;0.65;;;25.90;54.20;;;;;;4992307;28;20525;-83
2021/08/06 10:55:19;;;;;;;0.40;0.30;;;25.90;54.30;;;;;;4991678;28;20030;-82
2021/08/06 10:57:45;;;;;;;0.60;0.40;;;26.00;54.10;;;;;;4991795;28;20037;-82
2021/08/06 11:00:10;;;;;;;1.02;0.60;;;26.00;54.40;;;;;;5009274;28;20029;-80
2021/08/06 11:02:37;;;;;;;5.57;0.30;;;26.20;53.60;;;;;;4992016;28;20033;-82
2021/08/06 11:05:32;;;;;;;2.78;0.40;;;26.30;53.80;;;;;;5008466;28;20030;-82
2021/08/06 11:08:00;;;;;;;0.85;0.30;;;26.40;51.70;;;;;;4992074;28;20026;-82
2021/08/06 11:10:48;;;;;;;0.40;0.30;;;26.20;52.20;;;;;;4991994;28;20406;-81
2021/08/06 11:13:32;;;;;;;1.02;0.40;;;26.20;52.20;;;;;;5008842;28;20028;-82
2021/08/06 11:16:11;;;;;;;2.13;0.30;;;26.20;53.20;;;;;;5009660;28;20034;-82
2021/08/06 11:18:45;;;;;;;0.50;0.30;;;26.10;52.80;;;;;;5008928;28;20049;-82
2021/08/06 11:21:12;;;;;;;0.55;0.30;;;25.90;52.60;;;;;;4990681;28;20505;-82
2021/08/06 11:23:37;;;;;;;9.48;0.95;;;25.90;52.80;;;;;;4991378;28;20108;-83
2021/08/06 11:26:11;;;;;;;3.13;0.30;;;25.90;51.70;;;;;;4991859;28;20117;-81
2021/08/06 11:28:37;;;;;;;7.82;0.40;;;25.60;53.00;;;;;;4990862;28;20048;-81
2021/08/06 11:31:17;;;;;;;1.08;0.40;;;25.40;53.50;;;;;;4991344;28;20384;-83
2021/08/06 11:33:42;;;;;;;1.27;0.50;;;25.30;54.90;;;;;;5008626;28;20022;-82
2021/08/06 11:36:16;;;;;;;2.10;0.43;;;25.20;55.40;;;;;;4991053;28;20036;-79
2021/08/06 11:38:41;;;;;;;3.33;0.45;;;25.30;54.50;;;;;;5008148;28;20521;-81
2021/08/06 11:41:07;;;;;;;0.50;0.30;;;25.30;53.90;;;;;;4990886;28;20026;-82
2021/08/06 11:43:36;;;;;;;0.50;0.40;;;25.50;54.70;;;;;;4991028;28;20073;-82
2021/08/06 11:46:06;;;;;;;1.05;0.40;;;25.60;53.70;;;;;;4991178;28;20022;-83
2021/08/06 11:48:48;;;;;;;2.10;0.40;;;25.60;53.60;;;;;;4990791;28;20033;-79
2021/08/06 11:51:17;;;;;;;0.85;0.40;;;25.50;53.60;;;;;;4992253;28;20030;-83
2021/08/06 11:53:43;;;;;;;1.42;0.40;;;25.60;54.70;;;;;;4991113;28;20065;-83
2021/08/06 11:56:17;;;;;;;1.25;0.75;;;25.60;54.40;;;;;;5008574;28;20821;-82
2021/08/06 11:58:43;;;;;;;0.82;0.40;;;25.60;54.60;;;;;;5008801;28;20121;-82
2021/08/06 12:01:21;;;;;;;1.38;0.40;;;25.80;55.20;;;;;;4990566;28;20121;-81
2021/08/06 12:03:51;;;;;;;4.13;0.40;;;25.80;55.00;;;;;;5008357;28;20076;-82
2021/08/06 12:06:18;;;;;;;3.58;0.38;;;25.90;55.80;;;;;;5008376;28;20026;-81
2021/08/06 12:08:52;;;;;;;1.48;0.50;;;25.90;54.80;;;;;;5008342;28;20026;-82
2021/08/06 12:11:27;;;;;;;2.00;0.40;;;25.90;53.90;;;;;;4990313;28;20037;-82
2021/08/06 12:14:02;;;;;;;0.98;0.63;;;26.00;53.40;;;;;;4990665;28;20029;-82
2021/08/06 12:16:29;;;;;;;2.33;0.40;;;26.10;51.80;;;;;;4990753;28;20026;-81
2021/08/06 12:19:00;;;;;;;0.70;0.40;;;26.10;52.60;;;;;;4989897;28;20038;-80
2021/08/06 12:21:30;;;;;;;0.85;0.52;;;26.10;52.50;;;;;;4989999;28;20084;-82
2021/08/06 12:24:02;;;;;;;3.17;0.60;;;26.10;53.10;;;;;;4990730;28;20627;-81
2021/08/06 12:26:34;;;;;;;4.00;0.70;;;25.90;54.10;;;;;;4990058;28;20394;-80
2021/08/06 12:29:13;;;;;;;1.02;0.43;;;25.90;54.00;;;;;;4990030;28;20083;-82
2021/08/06 12:32:01;;;;;;;1.40;0.40;;;25.90;53.20;;;;;;4983247;28;20035;-82
2021/08/06 12:34:36;;;;;;;0.75;0.50;;;25.90;53.00;;;;;;4960095;28;20399;-81
2021/08/06 12:37:07;;;;;;;0.88;0.55;;;25.90;54.20;;;;;;4950787;28;20058;-81
2021/08/06 12:39:50;;;;;;;1.50;0.40;;;26.10;54.00;;;;;;4968905;28;20043;-80
2021/08/06 12:42:19;;;;;;;4.10;0.32;;;26.10;54.80;;;;;;4968431;28;20077;-82
2021/08/06 12:45:09;;;;;;;2.10;0.52;;;26.10;54.20;;;;;;4951193;28;20081;-82
2021/08/06 12:47:51;;;;;;;1.80;0.45;;;26.00;53.00;;;;;;4950988;28;20627;-81
2021/08/06 12:50:25;;;;;;;1.02;0.45;;;25.90;52.00;;;;;;4967325;28;20054;-82
2021/08/06 12:53:09;;;;;;;2.78;0.50;;;25.80;52.90;;;;;;4968531;28;20031;-82